createdAt,value
2023-01-10T00:01:48.858Z,82.51
2023-01-10T00:04:16.961Z,81.73
2023-01-10T00:06:44.930Z,82.11
2023-01-10T00:09:14.158Z,81.85
2023-01-10T00:11:59.843Z,82.67
2023-01-10T00:14:29.857Z,82.21
2023-01-10T00:16:57.899Z,82.42
2023-01-10T00:19:26.318Z,82.18
2023-01-10T00:21:54.432Z,82.50
2023-01-10T00:24:23.646Z,82.22
2023-01-10T00:26:53.105Z,81.92
2023-01-10T00:29:23.308Z,83.25
2023-01-10T00:31:51.129Z,82.86
2023-01-10T00:34:19.037Z,83.37
2023-01-10T00:36:48.484Z,82.83
2023-01-10T00:39:19.941Z,83.48
2023-01-10T00:42:06.950Z,83.53
2023-01-10T00:44:34.763Z,82.91
2023-01-10T00:47:02.520Z,82.83
2023-01-10T00:49:30.699Z,83.48
2023-01-10T00:51:59.619Z,82.30
2023-01-10T00:54:27.834Z,82.92
2023-01-10T00:56:57.008Z,81.98
2023-01-10T00:59:25.563Z,81.30
2023-01-10T01:01:53.960Z,81.43
2023-01-10T01:04:22.172Z,80.91
2023-01-10T01:06:50.793Z,80.71
2023-01-10T01:09:18.922Z,80.60
2023-01-10T01:11:46.722Z,81.76
2023-01-10T01:14:16.352Z,80.84
2023-01-10T01:16:44.126Z,79.79
2023-01-10T01:19:12.458Z,80.40
2023-01-10T01:21:40.274Z,80.03
2023-01-10T01:24:10.233Z,79.21
2023-01-10T01:26:38.042Z,79.85
2023-01-10T01:29:06.455Z,80.02
2023-01-10T01:31:35.905Z,79.85
2023-01-10T01:34:03.847Z,79.15
2023-01-10T01:36:31.663Z,78.39
2023-01-10T01:38:59.687Z,79.05
2023-01-10T01:41:45.038Z,79.07
2023-01-10T01:44:17.606Z,79.28
2023-01-10T01:46:53.562Z,79.02
2023-01-10T01:49:25.861Z,78.94
2023-01-10T01:52:00.593Z,78.74
2023-01-10T01:54:30.781Z,77.35
2023-01-10T01:57:06.834Z,78.22
2023-01-10T01:59:42.271Z,78.50
2023-01-10T02:02:18.395Z,78.70
2023-01-10T02:04:53.393Z,78.88
2023-01-10T02:07:24.362Z,79.59
2023-01-10T02:09:58.530Z,79.39
2023-01-10T02:12:30.329Z,78.83
2023-01-10T02:15:00.923Z,79.07
2023-01-10T02:17:30.261Z,80.08
2023-01-10T02:20:03.286Z,80.15
2023-01-10T02:23:19.664Z,80.27
2023-01-10T02:26:24.669Z,80.39
2023-01-10T02:29:25.570Z,80.56
2023-01-10T02:32:40.713Z,80.90
2023-01-10T02:35:28.367Z,80.38
2023-01-10T02:38:09.934Z,79.91
2023-01-10T02:40:51.023Z,80.71
2023-01-10T02:43:24.826Z,80.21
2023-01-10T02:46:00.458Z,79.86
2023-01-10T02:48:29.835Z,80.99
2023-01-10T02:51:04.179Z,81.07
2023-01-10T02:53:38.923Z,80.97
2023-01-10T02:56:46.836Z,80.36
2023-01-10T03:00:06.904Z,80.12
2023-01-10T03:02:50.767Z,80.37
2023-01-10T03:05:39.921Z,80.67
2023-01-10T03:08:24.780Z,80.73
2023-01-10T03:11:00.985Z,79.78
2023-01-10T03:13:38.043Z,81.22
2023-01-10T03:16:08.986Z,80.65
2023-01-10T03:18:45.982Z,80.02
2023-01-10T03:21:17.531Z,80.35
2023-01-10T03:23:50.243Z,79.83
2023-01-10T03:26:27.353Z,79.40
2023-01-10T03:29:03.573Z,79.71
2023-01-10T03:31:40.432Z,79.70
2023-01-10T03:34:08.750Z,79.65
2023-01-10T03:36:47.180Z,80.71
2023-01-10T03:39:29.242Z,80.99
2023-01-10T03:42:10.119Z,81.80
2023-01-10T03:44:50.666Z,81.82
2023-01-10T03:47:31.088Z,81.38
2023-01-10T03:50:05.065Z,80.84
2023-01-10T03:52:37.361Z,81.20
2023-01-10T03:55:08.288Z,80.87
2023-01-10T03:57:36.274Z,79.72
2023-01-10T04:00:04.931Z,80.72
2023-01-10T04:02:33.791Z,80.41
2023-01-10T04:05:01.686Z,80.80
2023-01-10T04:07:29.459Z,81.17
2023-01-10T04:09:59.090Z,81.23
2023-01-10T04:12:27.546Z,81.57
2023-01-10T04:14:55.509Z,82.17
2023-01-10T04:17:23.270Z,81.18
2023-01-10T04:19:51.072Z,80.84
2023-01-10T04:22:18.870Z,80.82
2023-01-10T04:24:48.561Z,80.73
2023-01-10T04:27:18.642Z,80.94
2023-01-10T04:29:46.697Z,80.42
2023-01-10T04:32:14.666Z,81.16
2023-01-10T04:34:42.484Z,80.84
2023-01-10T04:37:10.262Z,81.14
2023-01-10T04:39:38.365Z,80.22
2023-01-10T04:42:06.703Z,80.37
2023-01-10T04:44:35.849Z,80.35
2023-01-10T04:47:04.122Z,80.64
2023-01-10T04:49:32.140Z,80.81
2023-01-10T04:52:00.011Z,80.98
2023-01-10T04:54:28.051Z,81.16
2023-01-10T04:56:56.395Z,81.45
2023-01-10T04:59:24.259Z,81.88
2023-01-10T05:01:53.585Z,81.66
2023-01-10T05:04:21.506Z,81.94
2023-01-10T05:06:49.420Z,82.27
2023-01-10T05:09:17.243Z,82.39
2023-01-10T05:11:45.004Z,83.16
2023-01-10T05:14:12.739Z,82.77
2023-01-10T05:16:40.567Z,82.52
2023-01-10T05:19:10.508Z,81.84
2023-01-10T05:21:38.305Z,82.30
2023-01-10T05:24:07.835Z,82.93
2023-01-10T05:26:35.756Z,82.50
2023-01-10T05:29:03.996Z,82.71
2023-01-10T05:31:32.201Z,82.44
2023-01-10T05:34:00.111Z,82.93
2023-01-10T05:36:29.280Z,83.31
2023-01-10T05:38:57.079Z,82.72
2023-01-10T05:41:24.846Z,84.08
2023-01-10T05:43:54.091Z,82.71
2023-01-10T05:46:21.902Z,83.10
2023-01-10T05:48:50.269Z,83.13
2023-01-10T05:51:18.310Z,82.35
2023-01-10T05:53:48.554Z,82.45
2023-01-10T05:56:17.573Z,82.90
2023-01-10T05:58:47.406Z,82.13
2023-01-10T06:01:17.690Z,81.81
2023-01-10T06:03:45.839Z,82.28
2023-01-10T06:06:13.993Z,81.91
2023-01-10T06:08:41.812Z,81.54
2023-01-10T06:11:11.056Z,81.04
2023-01-10T06:13:39.758Z,81.04
2023-01-10T06:16:08.635Z,80.82
2023-01-10T06:18:36.459Z,81.34
2023-01-10T06:21:04.570Z,80.83
2023-01-10T06:23:32.361Z,81.40
2023-01-10T06:26:00.109Z,80.50
2023-01-10T06:28:29.265Z,80.38
2023-01-10T06:30:57.116Z,80.39
2023-01-10T06:33:25.092Z,79.13
2023-01-10T06:35:52.906Z,79.35
2023-01-10T06:38:20.685Z,80.27
2023-01-10T06:40:48.478Z,80.31
2023-01-10T06:43:16.361Z,81.02
2023-01-10T06:45:45.569Z,79.54
2023-01-10T06:48:13.341Z,79.98
2023-01-10T06:50:41.998Z,79.60
2023-01-10T06:53:10.404Z,79.72
2023-01-10T06:55:38.175Z,80.20
2023-01-10T06:58:06.201Z,80.04
2023-01-10T07:00:34.295Z,80.59
2023-01-10T07:03:03.520Z,80.20
2023-01-10T07:05:31.442Z,80.29
2023-01-10T07:08:01.189Z,80.83
2023-01-10T07:10:29.054Z,80.50
2023-01-10T07:12:57.534Z,79.97
2023-01-10T07:15:26.035Z,80.12
2023-01-10T07:17:53.814Z,81.62
2023-01-10T07:20:22.956Z,80.93
2023-01-10T07:22:55.836Z,81.38
2023-01-10T07:25:24.314Z,81.24
2023-01-10T07:27:55.213Z,81.17
2023-01-10T07:30:25.371Z,81.16
2023-01-10T07:32:57.359Z,81.30
2023-01-10T07:35:27.173Z,81.77
2023-01-10T07:37:55.605Z,81.31
2023-01-10T07:40:23.394Z,81.45
2023-01-10T07:42:51.368Z,81.59
2023-01-10T07:45:19.427Z,80.89
2023-01-10T07:47:47.135Z,81.13
2023-01-10T07:50:16.670Z,81.80
2023-01-10T07:52:47.114Z,82.55
2023-01-10T07:55:15.134Z,82.06
2023-01-10T07:57:42.903Z,81.56
2023-01-10T08:00:12.683Z,81.39
2023-01-10T08:02:40.561Z,80.76
2023-01-10T08:05:09.210Z,81.45
2023-01-10T08:07:37.621Z,80.62
2023-01-10T08:10:08.952Z,80.63
2023-01-10T08:12:36.711Z,80.36
2023-01-10T08:15:05.424Z,80.83
2023-01-10T08:17:35.267Z,80.57
2023-01-10T08:20:04.112Z,80.25
2023-01-10T08:22:31.908Z,80.44
2023-01-10T08:24:59.674Z,80.65
2023-01-10T08:27:29.081Z,80.78
2023-01-10T08:29:56.867Z,79.98
2023-01-10T08:32:24.646Z,79.79
2023-01-10T08:34:52.545Z,80.31
2023-01-10T08:37:20.490Z,79.23
2023-01-10T08:39:48.596Z,80.55
2023-01-10T08:42:17.859Z,79.42
2023-01-10T08:44:47.228Z,79.91
2023-01-10T08:47:15.088Z,79.43
2023-01-10T08:49:43.037Z,79.96
2023-01-10T08:52:11.303Z,80.24
2023-01-10T08:54:39.081Z,78.98
2023-01-10T08:57:06.877Z,78.95
2023-01-10T08:59:34.739Z,78.68
2023-01-10T09:02:04.983Z,79.48
2023-01-10T09:04:33.218Z,79.22
2023-01-10T09:07:01.521Z,78.21
2023-01-10T09:09:29.434Z,78.87
2023-01-10T09:11:57.488Z,78.17
2023-01-10T09:14:25.429Z,77.94
2023-01-10T09:16:53.231Z,78.47
2023-01-10T09:19:22.462Z,77.87
2023-01-10T09:21:50.259Z,78.25
2023-01-10T09:24:18.010Z,78.27
2023-01-10T09:26:45.836Z,78.68
2023-01-10T09:29:13.617Z,78.67
2023-01-10T09:31:41.470Z,78.46
2023-01-10T09:34:09.444Z,79.00
2023-01-10T09:36:40.436Z,78.71
2023-01-10T09:39:08.249Z,79.00
2023-01-10T09:42:07.058Z,78.08
2023-01-10T09:44:50.568Z,77.85
2023-01-10T09:47:28.097Z,77.88
2023-01-10T09:50:15.272Z,77.74
2023-01-10T09:52:50.771Z,77.56
2023-01-10T09:55:26.660Z,76.84
2023-01-10T09:57:59.891Z,77.08
2023-01-10T10:00:40.328Z,76.82
2023-01-10T10:03:28.120Z,75.79
2023-01-10T10:06:07.194Z,76.38
2023-01-10T10:08:41.530Z,75.78
2023-01-10T10:11:27.638Z,75.55
2023-01-10T10:14:07.996Z,74.96
2023-01-10T10:16:55.956Z,76.16
2023-01-10T10:19:41.703Z,75.67
2023-01-10T10:22:24.579Z,75.64
2023-01-10T10:25:08.828Z,76.32
2023-01-10T10:27:50.208Z,75.24
2023-01-10T10:30:43.338Z,75.75
2023-01-10T10:33:35.350Z,76.01
2023-01-10T10:36:11.612Z,75.80
2023-01-10T10:38:44.385Z,75.38
2023-01-10T10:41:26.343Z,75.06
2023-01-10T10:44:00.807Z,75.50
2023-01-10T10:46:28.693Z,75.48
2023-01-10T10:49:01.010Z,74.45
2023-01-10T10:51:41.524Z,73.77
2023-01-10T10:54:13.555Z,73.14
2023-01-10T10:56:45.167Z,73.26
2023-01-10T10:59:20.130Z,73.10
2023-01-10T11:01:50.621Z,73.56
2023-01-10T11:04:24.259Z,73.35
2023-01-10T11:06:53.524Z,72.74
2023-01-10T11:09:27.187Z,73.39
2023-01-10T11:11:59.205Z,73.73
2023-01-10T11:14:47.197Z,74.29
2023-01-10T11:17:25.505Z,73.21
2023-01-10T11:20:00.693Z,73.60
2023-01-10T11:22:34.783Z,73.54
2023-01-10T11:25:04.121Z,73.59
2023-01-10T11:27:48.745Z,74.43
2023-01-10T11:30:23.917Z,74.69
2023-01-10T11:32:56.840Z,73.21
2023-01-10T11:35:29.563Z,74.70
2023-01-10T11:38:02.758Z,73.53
2023-01-10T11:40:32.789Z,74.21
2023-01-10T11:43:25.115Z,74.57
2023-01-10T11:45:57.579Z,73.91
2023-01-10T11:48:56.302Z,73.48
2023-01-10T11:51:25.439Z,73.62
2023-01-10T11:54:00.122Z,73.98
2023-01-10T11:56:33.483Z,73.85
2023-01-10T11:59:14.364Z,73.16
2023-01-10T12:01:48.066Z,73.66
2023-01-10T12:05:33.547Z,74.64
2023-01-10T12:08:06.218Z,73.50
2023-01-10T12:10:41.151Z,74.02
2023-01-10T12:13:17.127Z,74.54
2023-01-10T12:15:52.311Z,73.76
2023-01-10T12:18:20.459Z,74.04
2023-01-10T12:20:52.332Z,74.28
2023-01-10T12:23:26.323Z,73.55
2023-01-10T12:26:10.729Z,73.95
2023-01-10T12:28:45.469Z,73.78
2023-01-10T12:31:16.843Z,73.81
2023-01-10T12:33:48.622Z,74.32
2023-01-10T12:36:31.871Z,72.90
2023-01-10T12:39:14.546Z,72.91
2023-01-10T12:42:15.482Z,73.31
2023-01-10T12:44:46.395Z,73.89
2023-01-10T12:47:36.246Z,73.41
2023-01-10T12:50:13.395Z,73.77
2023-01-10T12:52:49.558Z,73.71
2023-01-10T12:55:19.771Z,74.97
2023-01-10T12:57:53.450Z,73.29
2023-01-10T13:00:29.516Z,73.46
2023-01-10T13:03:03.141Z,73.53
2023-01-10T13:05:32.307Z,73.76
2023-01-10T13:08:05.927Z,73.31
2023-01-10T13:10:39.428Z,73.05
2023-01-10T13:13:20.100Z,72.85
2023-01-10T13:15:55.247Z,72.60
2023-01-10T13:18:29.555Z,73.18
2023-01-10T13:21:08.832Z,73.11
2023-01-10T13:23:48.230Z,72.87
2023-01-10T13:26:17.058Z,73.41
2023-01-10T13:28:58.544Z,72.50
2023-01-10T13:31:31.724Z,72.38
2023-01-10T13:34:05.984Z,72.53
2023-01-10T13:36:40.847Z,73.88
2023-01-10T13:39:25.335Z,72.12
2023-01-10T13:42:46.591Z,72.31
2023-01-10T13:45:38.570Z,72.45
2023-01-10T13:48:28.943Z,72.21
2023-01-10T13:51:18.857Z,72.58
2023-01-10T13:53:58.022Z,72.56
2023-01-10T13:56:36.509Z,73.50
2023-01-10T13:59:30.431Z,74.38
2023-01-10T14:02:19.796Z,73.34
2023-01-10T14:04:54.934Z,73.75
2023-01-10T14:07:30.001Z,73.36
2023-01-10T14:10:06.914Z,73.54
2023-01-10T14:12:39.615Z,72.39
2023-01-10T14:15:24.506Z,73.09
2023-01-10T14:18:01.686Z,73.59
2023-01-10T14:20:32.951Z,73.11
2023-01-10T14:23:08.034Z,73.48
2023-01-10T14:25:39.251Z,72.63
2023-01-10T14:28:23.017Z,73.30
2023-01-10T14:31:04.473Z,72.71
2023-01-10T14:33:35.346Z,73.03
2023-01-10T14:36:11.158Z,72.81
2023-01-10T14:38:41.452Z,72.89
2023-01-10T14:41:21.716Z,72.43
2023-01-10T14:43:58.621Z,74.09
2023-01-10T14:46:40.161Z,72.47
2023-01-10T14:49:24.293Z,72.06
2023-01-10T14:51:53.534Z,72.92
2023-01-10T14:54:23.475Z,72.06
2023-01-10T14:56:53.870Z,71.65
2023-01-10T14:59:28.200Z,72.59
2023-01-10T15:01:59.462Z,72.37
2023-01-10T15:04:30.832Z,72.45
2023-01-10T15:07:02.539Z,72.30
2023-01-10T15:09:33.174Z,72.31
2023-01-10T15:12:05.816Z,72.49
2023-01-10T15:14:37.945Z,72.93
2023-01-10T15:17:09.795Z,71.87
2023-01-10T15:19:40.955Z,72.17
2023-01-10T15:22:26.241Z,71.08
2023-01-10T15:25:04.398Z,72.23
2023-01-10T15:27:34.616Z,71.67
2023-01-10T15:30:10.914Z,71.47
2023-01-10T15:32:41.074Z,70.66
2023-01-10T15:35:17.835Z,71.90
2023-01-10T15:37:54.895Z,71.82
2023-01-10T15:40:30.539Z,72.40
2023-01-10T15:43:27.087Z,72.12
2023-01-10T15:45:56.491Z,71.68
2023-01-10T15:48:33.938Z,72.15
2023-01-10T15:51:13.046Z,72.08
2023-01-10T15:54:03.666Z,73.32
2023-01-10T15:56:37.917Z,73.67
2023-01-10T15:59:22.621Z,73.22
2023-01-10T16:01:56.203Z,73.82
2023-01-10T16:04:24.761Z,73.76
2023-01-10T16:07:06.094Z,74.28
2023-01-10T16:09:35.724Z,74.81
2023-01-10T16:12:23.117Z,75.31
2023-01-10T16:14:50.893Z,76.85
2023-01-10T16:17:18.858Z,77.38
2023-01-10T16:19:46.623Z,77.28
2023-01-10T16:22:20.102Z,78.45
2023-01-10T16:24:50.324Z,78.97
2023-01-10T16:27:19.542Z,79.30
2023-01-10T16:29:47.336Z,80.17
2023-01-10T16:32:16.327Z,80.06
2023-01-10T16:34:45.016Z,80.09
2023-01-10T16:37:12.832Z,80.03
2023-01-10T16:39:40.618Z,80.71
2023-01-10T16:42:27.700Z,81.77
2023-01-10T16:44:57.288Z,81.97
2023-01-10T16:47:25.175Z,81.56
2023-01-10T16:49:52.949Z,82.46
2023-01-10T16:52:20.741Z,82.65
2023-01-10T16:54:48.571Z,82.17
2023-01-10T16:57:17.765Z,82.52
2023-01-10T16:59:46.113Z,82.15
2023-01-10T17:02:19.624Z,82.64
2023-01-10T17:04:48.184Z,82.77
2023-01-10T17:07:23.528Z,82.81
2023-01-10T17:09:51.562Z,82.50
2023-01-10T17:12:20.560Z,82.42
2023-01-10T17:14:49.594Z,83.08
2023-01-10T17:17:18.846Z,83.03
2023-01-10T17:19:47.639Z,83.68
2023-01-10T17:22:19.602Z,83.70
2023-01-10T17:24:47.472Z,82.90
2023-01-10T17:27:15.881Z,83.23
2023-01-10T17:29:44.044Z,83.25
2023-01-10T17:32:12.802Z,83.35
2023-01-10T17:34:43.311Z,83.55
2023-01-10T17:37:11.304Z,83.15
2023-01-10T17:39:39.352Z,83.90
2023-01-10T17:42:08.228Z,84.33
2023-01-10T17:44:43.620Z,84.42
2023-01-10T17:47:20.316Z,84.79
2023-01-10T17:49:49.814Z,85.57
2023-01-10T17:52:18.010Z,84.97
2023-01-10T17:54:46.149Z,85.19
2023-01-10T17:57:15.017Z,84.80
2023-01-10T17:59:43.120Z,84.77
2023-01-10T18:02:18.690Z,85.33
2023-01-10T18:04:46.751Z,85.06
2023-01-10T18:07:16.350Z,85.35
2023-01-10T18:09:44.161Z,84.76
2023-01-10T18:12:12.140Z,85.35
2023-01-10T18:14:40.141Z,85.50
2023-01-10T18:17:11.883Z,85.45
2023-01-10T18:19:39.955Z,85.36
2023-01-10T18:22:22.005Z,85.37
2023-01-10T18:24:52.750Z,85.29
2023-01-10T18:27:29.348Z,85.51
2023-01-10T18:29:57.335Z,85.11
2023-01-10T18:32:33.284Z,85.53
2023-01-10T18:35:01.447Z,85.17
2023-01-10T18:37:34.814Z,84.88
2023-01-10T18:40:04.486Z,85.20
2023-01-10T18:42:32.517Z,85.97
2023-01-10T18:45:00.625Z,86.30
2023-01-10T18:47:28.595Z,86.51
2023-01-10T18:49:56.522Z,86.42
2023-01-10T18:52:25.096Z,86.07
2023-01-10T18:54:53.070Z,86.74
2023-01-10T18:57:22.556Z,85.67
2023-01-10T18:59:50.347Z,85.76
2023-01-10T19:02:18.257Z,85.52
2023-01-10T19:04:46.121Z,86.27
2023-01-10T19:07:13.960Z,86.25
2023-01-10T19:09:41.818Z,86.22
2023-01-10T19:12:09.712Z,86.39
2023-01-10T19:14:38.924Z,86.55
2023-01-10T19:17:06.743Z,86.13
2023-01-10T19:19:34.954Z,85.88
2023-01-10T19:22:03.059Z,86.28
2023-01-10T19:24:32.761Z,86.94
2023-01-10T19:27:00.585Z,86.34
2023-01-10T19:29:30.369Z,87.05
2023-01-10T19:32:03.906Z,86.72
2023-01-10T19:34:31.963Z,87.69
2023-01-10T19:36:59.780Z,87.67
2023-01-10T19:39:27.810Z,87.37
2023-01-10T19:41:55.895Z,87.80
2023-01-10T19:44:23.867Z,87.33
2023-01-10T19:46:52.124Z,87.02
2023-01-10T19:49:22.158Z,87.66
2023-01-10T19:51:53.645Z,87.37
2023-01-10T19:54:21.743Z,87.32
2023-01-10T19:56:49.826Z,87.71
2023-01-10T19:59:17.741Z,87.73
2023-01-10T20:01:46.308Z,87.53
2023-01-10T20:04:14.385Z,87.57
2023-01-10T20:06:44.125Z,86.88
2023-01-10T20:09:14.118Z,87.19
2023-01-10T20:11:43.026Z,86.89
2023-01-10T20:14:15.698Z,86.68
2023-01-10T20:16:44.287Z,86.95
2023-01-10T20:19:13.353Z,86.11
2023-01-10T20:21:43.860Z,86.19
2023-01-10T20:24:13.112Z,85.67
2023-01-10T20:26:41.345Z,86.17
2023-01-10T20:29:09.361Z,85.88
2023-01-10T20:31:37.624Z,86.48
2023-01-10T20:34:06.152Z,85.77
2023-01-10T20:36:34.058Z,86.37
2023-01-10T20:39:03.612Z,85.56
2023-01-10T20:41:32.138Z,85.82
2023-01-10T20:44:01.078Z,86.21
2023-01-10T20:46:31.787Z,85.37
2023-01-10T20:49:02.897Z,85.95
2023-01-10T20:51:33.827Z,85.17
2023-01-10T20:54:04.021Z,85.22
2023-01-10T20:56:35.107Z,85.25
2023-01-10T20:59:04.217Z,85.74
2023-01-10T21:01:34.877Z,84.91
2023-01-10T21:04:04.523Z,84.86
2023-01-10T21:06:32.874Z,85.53
2023-01-10T21:09:01.108Z,85.26
2023-01-10T21:11:30.432Z,85.31
2023-01-10T21:13:58.466Z,85.31
2023-01-10T21:16:26.494Z,85.47
2023-01-10T21:18:54.447Z,84.60
2023-01-10T21:21:23.453Z,84.11
2023-01-10T21:23:53.925Z,84.28
2023-01-10T21:26:22.093Z,84.73
2023-01-10T21:28:51.273Z,84.63
2023-01-10T21:31:23.287Z,84.89
2023-01-10T21:33:51.445Z,85.64
2023-01-10T21:36:19.439Z,85.04
2023-01-10T21:38:48.009Z,84.70
2023-01-10T21:41:40.061Z,85.10
2023-01-10T21:44:10.264Z,84.20
2023-01-10T21:46:38.334Z,84.90
2023-01-10T21:49:06.524Z,84.09
2023-01-10T21:51:34.454Z,84.15
2023-01-10T21:54:02.576Z,84.60
2023-01-10T21:56:30.407Z,84.54
2023-01-10T21:58:58.621Z,84.49
2023-01-10T22:01:28.289Z,84.30
2023-01-10T22:03:56.221Z,84.51
2023-01-10T22:06:24.267Z,84.54
2023-01-10T22:08:53.303Z,85.58
2023-01-10T22:11:21.237Z,84.64
2023-01-10T22:13:50.646Z,84.98
2023-01-10T22:16:18.572Z,84.57
2023-01-10T22:18:49.079Z,85.04
2023-01-10T22:21:17.667Z,84.98
2023-01-10T22:23:45.939Z,85.51
2023-01-10T22:26:16.897Z,85.82
2023-01-10T22:28:44.920Z,86.18
2023-01-10T22:31:13.181Z,85.60
2023-01-10T22:33:41.047Z,85.27
2023-01-10T22:36:16.338Z,85.93
2023-01-10T22:38:45.051Z,85.52
2023-01-10T22:41:16.538Z,85.51
2023-01-10T22:43:45.667Z,85.32
2023-01-10T22:46:15.674Z,86.20
2023-01-10T22:48:44.567Z,86.19
2023-01-10T22:51:14.351Z,86.37
2023-01-10T22:53:42.430Z,86.23
2023-01-10T22:56:12.403Z,86.30
2023-01-10T22:58:42.221Z,87.39
2023-01-10T23:01:10.384Z,86.66
2023-01-10T23:03:38.241Z,86.41
2023-01-10T23:06:06.298Z,86.85
2023-01-10T23:08:36.454Z,87.15
2023-01-10T23:11:04.333Z,86.19
2023-01-10T23:13:32.494Z,86.59
2023-01-10T23:16:13.671Z,85.81
2023-01-10T23:18:41.523Z,85.82
2023-01-10T23:21:10.684Z,85.88
2023-01-10T23:23:40.047Z,86.63
2023-01-10T23:26:13.552Z,86.88
2023-01-10T23:28:46.832Z,86.63
2023-01-10T23:31:20.632Z,86.51
2023-01-10T23:33:50.899Z,86.17
2023-01-10T23:36:19.800Z,86.55
2023-01-10T23:38:49.230Z,86.53
2023-01-10T23:41:21.169Z,86.13
2023-01-10T23:43:50.571Z,86.35
2023-01-10T23:46:19.060Z,87.27
2023-01-10T23:48:48.321Z,86.98
2023-01-10T23:51:16.469Z,86.63
2023-01-10T23:53:44.400Z,86.96
2023-01-10T23:56:16.128Z,87.10
2023-01-10T23:58:44.214Z,87.18
